Time;durP1;ratioP1;P1;durP2;ratioP2;P2;SDS_P1;SDS_P2;PMS_P1;PMS_P2;Temp;Humidity;BMP_temperature;BMP_pressure;BME280_temperature;BME280_humidity;BME280_pressure;Samples;Min_cycle;Max_cycle;Signal;HPM_P1;HPM_P2
2022/10/13 00:00:12;;;;;;;24.48;11.95;;;;;;;16.38;60.22;98811.37;5256285;27;20152;-77
2022/10/13 00:02:41;;;;;;;22.02;11.23;;;;;;;16.32;60.43;98806.47;5255784;27;20084;-77
2022/10/13 00:05:08;;;;;;;26.70;12.75;;;;;;;16.66;60.09;98807.22;5256109;27;20061;-77
2022/10/13 00:07:35;;;;;;;25.67;13.13;;;;;;;17.35;56.79;98806.81;5255966;27;20058;-77
2022/10/13 00:10:02;;;;;;;28.42;12.70;;;;;;;17.00;57.73;98811.41;5255633;27;20052;-77
2022/10/13 00:12:29;;;;;;;23.25;11.98;;;;;;;17.25;56.28;98805.66;5256202;27;20073;-77
2022/10/13 00:14:57;;;;;;;21.70;10.85;;;;;;;17.06;56.79;98811.09;5256187;27;20099;-77
2022/10/13 00:17:23;;;;;;;24.75;12.55;;;;;;;16.36;58.99;98810.59;5255656;27;20412;-77
2022/10/13 00:19:50;;;;;;;21.75;11.57;;;;;;;15.87;60.53;98812.37;5256210;27;20056;-77
2022/10/13 00:22:17;;;;;;;24.85;12.55;;;;;;;15.78;61.08;98807.62;5255861;27;20401;-77
2022/10/13 00:24:50;;;;;;;27.35;13.02;;;;;;;16.79;58.27;98810.88;5256115;27;20092;-77
2022/10/13 00:27:16;;;;;;;25.77;13.18;;;;;;;16.67;58.31;98803.69;5256201;27;20097;-77
2022/10/13 00:29:43;;;;;;;24.08;12.20;;;;;;;16.80;57.40;98806.50;5255569;27;20057;-77
2022/10/13 00:32:10;;;;;;;24.95;12.43;;;;;;;17.06;56.71;98805.88;5256067;27;20455;-77
2022/10/13 00:34:37;;;;;;;24.58;12.57;;;;;;;17.29;55.65;98805.37;5256129;27;20066;-77
2022/10/13 00:37:05;;;;;;;27.37;13.32;;;;;;;16.63;57.06;98808.25;5255756;27;20091;-77
2022/10/13 00:39:32;;;;;;;25.83;12.10;;;;;;;17.30;55.37;98801.00;5255887;27;20058;-76
2022/10/13 00:41:59;;;;;;;26.77;12.55;;;;;;;16.48;57.94;98802.13;5256150;27;20073;-77
2022/10/13 00:44:58;;;;;;;23.20;12.98;;;;;;;16.53;58.19;98801.03;5255524;27;20080;-77
2022/10/13 00:47:32;;;;;;;21.10;11.10;;;;;;;17.07;54.97;98807.56;5255929;27;20057;-77
2022/10/13 00:50:00;;;;;;;26.02;11.15;;;;;;;16.56;57.01;98798.25;5236878;27;20076;-77
2022/10/13 00:52:27;;;;;;;23.08;10.98;;;;;;;16.61;56.90;98804.91;5255678;27;20111;-78
2022/10/13 00:54:55;;;;;;;26.40;12.07;;;;;;;16.04;59.01;98803.66;5255903;27;20065;-77
2022/10/13 00:57:22;;;;;;;26.75;13.23;;;;;;;15.36;61.57;98798.47;5255482;27;20053;-77
2022/10/13 00:59:49;;;;;;;24.70;12.80;;;;;;;16.08;60.54;98795.63;5236983;27;20455;-77
2022/10/13 01:02:16;;;;;;;24.15;10.82;;;;;;;16.11;60.75;98797.22;5236940;27;20062;-77
2022/10/13 01:04:45;;;;;;;20.95;10.80;;;;;;;16.40;60.22;98798.25;5255479;27;20081;-76
2022/10/13 01:07:14;;;;;;;22.55;10.18;;;;;;;16.27;60.82;98795.50;5236794;27;20064;-77
2022/10/13 01:09:41;;;;;;;21.33;11.05;;;;;;;16.40;61.04;98793.06;5236744;27;20053;-77
2022/10/13 01:12:33;;;;;;;22.25;10.63;;;;;;;16.53;61.46;98793.22;5255582;27;20440;-77
2022/10/13 01:15:16;;;;;;;22.13;10.85;;;;;;;17.26;58.24;98794.31;5237080;27;20460;-77
2022/10/13 01:17:52;;;;;;;21.85;11.52;;;;;;;16.20;60.86;98792.34;5236920;27;20053;-77
2022/10/13 01:20:22;;;;;;;21.05;10.35;;;;;;;15.69;61.89;98798.53;5255646;27;20546;-77
2022/10/13 01:23:05;;;;;;;24.52;10.75;;;;;;;16.07;61.37;98798.31;5255862;27;20062;-77
2022/10/13 01:26:24;;;;;;;19.67;9.88;;;;;;;16.69;58.13;98794.06;5236347;27;20412;-77
2022/10/13 01:29:03;;;;;;;23.10;10.85;;;;;;;16.77;56.97;98797.09;5252951;27;20068;-77
2022/10/13 01:31:44;;;;;;;22.73;11.73;;;;;;;16.19;58.07;98782.03;5255972;27;20046;-77
2022/10/13 01:34:22;;;;;;;21.73;11.48;;;;;;;16.01;58.86;98785.59;5255428;27;20054;-77
2022/10/13 01:36:54;;;;;;;21.20;11.10;;;;;;;16.81;55.83;98780.38;5255622;27;20415;-77
2022/10/13 01:39:27;;;;;;;23.85;11.50;;;;;;;16.42;55.77;98780.78;5236089;27;20046;-77
2022/10/13 01:41:59;;;;;;;23.70;11.63;;;;;;;16.24;56.56;98785.22;5255821;27;20045;-77
2022/10/13 01:44:35;;;;;;;24.77;12.68;;;;;;;16.42;55.86;98789.44;5255771;27;20058;-77
2022/10/13 01:47:03;;;;;;;34.88;14.15;;;;;;;16.15;56.44;98790.91;5236166;27;20072;-77
2022/10/13 01:49:34;;;;;;;23.48;10.10;;;;;;;15.96;56.53;98790.22;5236497;27;20155;-77
2022/10/13 01:52:07;;;;;;;22.00;10.75;;;;;;;16.20;55.43;98789.75;5236649;27;20094;-77
2022/10/13 01:54:34;;;;;;;22.42;11.12;;;;;;;15.65;57.02;98785.78;5236227;27;20069;-77
2022/10/13 01:57:01;;;;;;;23.17;10.20;;;;;;;15.93;56.58;98783.41;5256680;27;20058;-77
2022/10/13 01:59:31;;;;;;;22.30;10.60;;;;;;;15.69;57.34;98784.69;5256576;27;20049;-77
2022/10/13 02:02:20;;;;;;;20.37;10.50;;;;;;;15.54;57.45;98776.72;5256419;27;20060;-77
2022/10/13 02:05:07;;;;;;;19.33;9.98;;;;;;;15.53;57.47;98779.41;5237389;27;20081;-77
2022/10/13 02:07:51;;;;;;;19.37;9.52;;;;;;;15.53;57.55;98780.25;5237085;27;20397;-77
2022/10/13 02:10:27;;;;;;;20.05;8.82;;;;;;;15.95;56.53;98786.78;5256674;27;20046;-77
2022/10/13 02:13:05;;;;;;;17.70;9.05;;;;;;;15.69;57.25;98776.88;5237626;27;20053;-77
2022/10/13 02:15:45;;;;;;;17.87;8.10;;;;;;;15.50;58.04;98774.34;5237039;27;20062;-77
2022/10/13 02:18:14;;;;;;;18.73;8.90;;;;;;;16.05;56.83;98777.53;5237496;27;20088;-77
2022/10/13 02:20:41;;;;;;;18.48;8.43;;;;;;;15.86;57.67;98772.50;5237511;27;20050;-77
2022/10/13 02:23:12;;;;;;;17.75;8.77;;;;;;;16.12;56.85;98767.66;5256235;27;20065;-77
2022/10/13 02:25:39;;;;;;;17.65;8.60;;;;;;;16.11;57.27;98764.22;5256456;27;20061;-77
2022/10/13 02:28:06;;;;;;;16.52;8.23;;;;;;;16.38;56.76;98761.88;5255125;27;20058;-77
2022/10/13 02:30:34;;;;;;;18.85;8.75;;;;;;;16.03;58.45;98771.59;5254913;26;20054;-77
2022/10/13 02:33:01;;;;;;;18.80;9.10;;;;;;;15.83;58.60;98767.44;5256520;27;20370;-77
2022/10/13 02:35:29;;;;;;;19.70;9.45;;;;;;;16.04;58.02;98765.44;5255902;27;20080;-77
2022/10/13 02:37:56;;;;;;;19.15;8.73;;;;;;;15.74;59.31;98770.53;5256178;27;20070;-77
2022/10/13 02:40:24;;;;;;;18.20;9.75;;;;;;;15.96;57.85;98762.44;5256602;26;20050;-77
2022/10/13 02:42:50;;;;;;;20.25;9.80;;;;;;;16.00;57.26;98769.16;5256101;27;20491;-77
2022/10/13 02:45:18;;;;;;;20.90;9.82;;;;;;;15.86;57.47;98756.88;5256448;27;20065;-77
2022/10/13 02:47:45;;;;;;;21.77;9.20;;;;;;;15.95;56.78;98759.88;5256591;27;20062;-77
2022/10/13 02:50:12;;;;;;;23.45;9.10;;;;;;;15.90;56.52;98757.56;5256078;26;20053;-77
2022/10/13 02:52:38;;;;;;;17.65;8.85;;;;;;;15.24;57.74;98755.72;5256497;27;20050;-77
2022/10/13 02:55:06;;;;;;;23.17;10.80;;;;;;;15.14;58.24;98754.50;5256302;27;20066;-77
2022/10/13 02:57:33;;;;;;;24.48;12.32;;;;;;;16.16;55.25;98758.75;5255883;27;20065;-77
2022/10/13 03:00:00;;;;;;;28.45;13.52;;;;;;;15.90;56.33;98754.94;5256515;27;20064;-77
2022/10/13 03:02:27;;;;;;;27.13;14.13;;;;;;;16.39;54.65;98763.56;5256456;27;20049;-77
2022/10/13 03:04:54;;;;;;;26.95;14.32;;;;;;;16.30;55.17;98763.22;5255828;27;20072;-77
2022/10/13 03:07:21;;;;;;;28.12;14.48;;;;;;;16.23;55.66;98764.47;5256425;27;20076;-77
2022/10/13 03:09:48;;;;;;;24.17;11.55;;;;;;;16.21;55.35;98764.56;5256327;27;20499;-77
2022/10/13 03:12:15;;;;;;;21.92;10.10;;;;;;;15.54;56.62;98761.13;5256017;27;20064;-77
2022/10/13 03:14:43;;;;;;;22.67;10.77;;;;;;;15.32;56.54;98763.16;5256221;27;20082;-77
2022/10/13 03:17:10;;;;;;;20.65;9.40;;;;;;;15.70;54.79;98763.78;5256418;27;20072;-77
2022/10/13 03:19:39;;;;;;;23.02;8.75;;;;;;;14.39;59.48;98765.91;5256074;27;20062;-77
2022/10/13 03:22:06;;;;;;;17.33;8.95;;;;;;;15.02;58.09;98760.31;5256432;27;20391;-77
2022/10/13 03:24:33;;;;;;;18.08;8.55;;;;;;;15.02;57.82;98760.31;5255895;27;20352;-77
2022/10/13 03:26:59;;;;;;;18.30;8.50;;;;;;;15.19;56.71;98764.66;5256241;27;20058;-77
2022/10/13 03:29:26;;;;;;;17.73;7.97;;;;;;;15.05;57.45;98763.59;5256283;27;20061;-77
2022/10/13 03:31:53;;;;;;;19.75;8.80;;;;;;;14.64;58.72;98765.59;5255755;27;20107;-77
2022/10/13 03:34:20;;;;;;;16.77;8.32;;;;;;;14.51;59.72;98764.50;5256235;27;20080;-77
2022/10/13 03:36:47;;;;;;;15.40;7.37;;;;;;;14.34;60.29;98762.66;5256418;27;20062;-77
2022/10/13 03:39:14;;;;;;;16.35;7.82;;;;;;;15.33;58.24;98760.47;5255522;27;20348;-77
2022/10/13 03:41:41;;;;;;;16.10;7.30;;;;;;;15.73;57.04;98758.44;5256382;27;20041;-77
2022/10/13 03:44:12;;;;;;;16.77;8.13;;;;;;;15.80;56.26;98757.19;5256196;27;20077;-77
2022/10/13 03:46:39;;;;;;;20.83;9.75;;;;;;;14.74;59.38;98750.41;5255978;27;20054;-76
2022/10/13 03:49:06;;;;;;;17.62;8.98;;;;;;;15.52;57.77;98749.09;5256217;27;20068;-77
2022/10/13 03:51:33;;;;;;;17.52;8.43;;;;;;;15.23;59.32;98745.41;5256207;27;20045;-77
2022/10/13 03:53:59;;;;;;;18.00;8.80;;;;;;;14.94;60.25;98747.69;5255536;27;20054;-77
2022/10/13 03:56:27;;;;;;;18.73;10.05;;;;;;;15.32;60.45;98750.16;5256412;26;20058;-77
2022/10/13 03:58:55;;;;;;;18.50;8.48;;;;;;;15.01;61.72;98748.25;5256133;27;20401;-77
2022/10/13 04:01:24;;;;;;;22.17;8.85;;;;;;;14.97;61.45;98752.72;5255785;27;20046;-77
2022/10/13 04:03:53;;;;;;;17.92;8.50;;;;;;;15.65;57.94;98754.56;5256263;27;20457;-77
2022/10/13 04:06:21;;;;;;;17.08;8.43;;;;;;;15.62;56.12;98745.97;5237225;27;20076;-77
2022/10/13 04:08:48;;;;;;;16.58;7.68;;;;;;;15.55;56.27;98752.41;5255870;27;20057;-77
2022/10/13 04:11:16;;;;;;;20.33;8.32;;;;;;;15.25;56.72;98752.22;5256233;27;20503;-77
2022/10/13 04:13:43;;;;;;;21.23;7.50;;;;;;;14.87;58.12;98755.84;5255785;27;20570;-77
2022/10/13 04:16:20;;;;;;;21.15;8.43;;;;;;;14.97;57.98;98754.50;5256004;27;20074;-77
2022/10/13 04:18:55;;;;;;;20.25;9.60;;;;;;;15.14;56.74;98748.47;5236680;27;20337;-77
2022/10/13 04:21:23;;;;;;;18.85;9.35;;;;;;;15.22;56.69;98741.13;5255821;27;20062;-77
2022/10/13 04:23:50;;;;;;;20.88;9.63;;;;;;;15.16;57.30;98742.25;5256146;27;20077;-77
2022/10/13 04:26:19;;;;;;;20.95;9.23;;;;;;;15.33;58.19;98739.66;5256108;27;20064;-77
2022/10/13 04:28:50;;;;;;;20.58;8.93;;;;;;;15.31;58.73;98740.62;5255685;27;20416;-77
2022/10/13 04:31:17;;;;;;;22.50;10.45;;;;;;;15.32;58.84;98738.00;5256075;27;20396;-77
2022/10/13 04:33:44;;;;;;;18.90;9.55;;;;;;;15.32;58.33;98738.00;5256144;27;20058;-77
2022/10/13 04:36:13;;;;;;;20.48;10.02;;;;;;;14.74;59.17;98740.03;5255502;27;20322;-76
2022/10/13 04:38:41;;;;;;;20.65;10.15;;;;;;;14.37;60.63;98741.78;5255884;27;20046;-77
2022/10/13 04:41:09;;;;;;;20.77;10.20;;;;;;;14.43;60.98;98740.62;5256115;27;20337;-77
2022/10/13 04:43:36;;;;;;;24.52;10.50;;;;;;;15.03;58.69;98742.03;5255653;27;20385;-77
2022/10/13 04:46:14;;;;;;;22.02;9.48;;;;;;;14.55;60.16;98745.25;5255812;27;20095;-77
2022/10/13 04:48:41;;;;;;;22.25;9.45;;;;;;;14.73;59.16;98733.16;5256081;27;20053;-77
2022/10/13 04:51:10;;;;;;;108.28;15.65;;;;;;;14.14;60.44;98750.63;5255707;27;20046;-77
2022/10/13 04:53:37;;;;;;;25.52;11.55;;;;;;;14.09;60.64;98746.53;5256115;27;20054;-77
2022/10/13 04:56:07;;;;;;;26.48;12.68;;;;;;;14.12;60.22;98744.66;5255436;27;20066;-77
2022/10/13 04:58:35;;;;;;;24.15;10.95;;;;;;;14.69;59.43;98742.87;5256021;27;20054;-77
2022/10/13 05:01:04;;;;;;;23.77;10.70;;;;;;;15.54;56.42;98737.72;5256066;27;20103;-77
2022/10/13 05:03:32;;;;;;;25.95;12.77;;;;;;;15.32;57.55;98742.34;5255566;27;20058;-77
2022/10/13 05:05:59;;;;;;;27.25;13.38;;;;;;;15.52;56.82;98749.09;5255838;27;20439;-77
2022/10/13 05:08:26;;;;;;;35.80;15.20;;;;;;;15.61;55.91;98744.28;5255758;27;20068;-77
2022/10/13 05:10:55;;;;;;;35.38;14.82;;;;;;;15.48;54.93;98739.78;5255437;27;20049;-77
2022/10/13 05:13:23;;;;;;;25.30;12.68;;;;;;;15.25;55.27;98734.00;5255969;27;20144;-77
2022/10/13 05:15:51;;;;;;;31.30;14.55;;;;;;;14.87;56.22;98733.31;5255758;27;20122;-77
2022/10/13 05:18:17;;;;;;;33.03;17.25;;;;;;;15.17;56.19;98738.75;5255496;27;20427;-78
2022/10/13 05:20:45;;;;;;;34.88;16.27;;;;;;;14.60;58.55;98745.06;5255827;27;20049;-78
2022/10/13 05:23:13;;;;;;;31.25;14.23;;;;;;;14.55;59.40;98745.25;5255910;27;20054;-78
2022/10/13 05:25:40;;;;;;;37.72;14.75;;;;;;;14.95;59.34;98741.56;5255310;27;20076;-78
2022/10/13 05:28:07;;;;;;;33.65;15.98;;;;;;;15.76;57.23;98745.28;5272473;27;20065;-78
2022/10/13 05:30:34;;;;;;;37.28;15.60;;;;;;;16.15;54.90;98744.88;5299482;27;20041;-78
2022/10/13 05:33:01;;;;;;;35.35;15.73;;;;;;;16.07;53.46;98738.44;5299516;27;20057;-78
2022/10/13 05:35:28;;;;;;;33.92;16.20;;;;;;;15.15;56.37;98750.97;5300080;27;20101;-79
2022/10/13 05:37:55;;;;;;;46.17;16.45;;;;;;;14.38;59.14;98748.63;5299366;27;20538;-78
2022/10/13 05:40:22;;;;;;;31.65;15.25;;;;;;;14.40;60.03;98752.00;5300330;27;20045;-78
2022/10/13 05:42:50;;;;;;;28.83;12.75;;;;;;;14.83;59.67;98747.38;5300293;27;20173;-79
2022/10/13 05:45:17;;;;;;;32.38;15.35;;;;;;;15.67;57.68;98747.53;5299761;27;20126;-79
2022/10/13 05:47:44;;;;;;;35.45;16.67;;;;;;;15.86;57.23;98751.69;5271990;26;20065;-78
2022/10/13 05:50:11;;;;;;;36.83;17.50;;;;;;;16.54;54.26;98748.84;5278412;27;20046;-78
2022/10/13 05:52:38;;;;;;;46.97;21.50;;;;;;;17.19;51.46;98743.41;5277985;27;20054;-78
2022/10/13 05:55:07;;;;;;;39.92;17.98;;;;;;;16.95;52.21;98750.91;5277878;27;20379;-78
2022/10/13 05:57:39;;;;;;;42.00;20.23;;;;;;;17.05;52.44;98755.50;5262462;27;20316;-78
2022/10/13 06:00:09;;;;;;;43.63;21.37;;;;;;;17.20;53.24;98755.53;5280676;27;20063;-78
2022/10/13 06:02:51;;;;;;;44.53;22.73;;;;;;;18.51;50.31;98760.59;5280709;27;20062;-78
2022/10/13 06:05:20;;;;;;;50.25;23.38;;;;;;;18.67;50.46;98763.06;5300044;27;20503;-78
2022/10/13 06:07:47;;;;;;;43.92;21.77;;;;;;;19.07;49.53;98762.16;5299802;27;20712;-79
2022/10/13 06:10:14;;;;;;;38.28;20.50;;;;;;;19.70;48.39;98760.56;5299943;27;20045;-79
2022/10/13 06:12:41;;;;;;;26.98;13.90;;;;;;;20.41;47.27;98761.69;5280712;27;20061;-78
2022/10/13 06:15:08;;;;;;;39.58;16.62;;;;;;;21.29;45.82;98768.38;5299561;27;20061;-78
2022/10/13 06:17:37;;;;;;;25.12;13.02;;;;;;;21.44;44.57;98773.41;5300158;27;20068;-78
2022/10/13 06:20:05;;;;;;;21.48;11.07;;;;;;;22.01;43.15;98776.00;5299753;27;20042;-78
2022/10/13 06:22:33;;;;;;;16.15;7.70;;;;;;;22.30;42.09;98778.12;5280688;27;20058;-78
2022/10/13 06:25:01;;;;;;;17.83;8.70;;;;;;;22.69;41.59;98774.94;5299896;27;20064;-78
2022/10/13 06:27:28;;;;;;;15.30;8.15;;;;;;;23.32;40.54;98767.19;5299660;27;20089;-78
2022/10/13 06:29:55;;;;;;;17.55;8.55;;;;;;;23.58;40.11;98775.50;5300318;27;20448;-80
2022/10/13 06:32:22;;;;;;;17.87;8.68;;;;;;;23.89;39.66;98774.59;5299885;27;20107;-78
2022/10/13 06:34:49;;;;;;;18.70;8.55;;;;;;;24.32;39.11;98775.34;5299546;27;20065;-78
2022/10/13 06:37:16;;;;;;;20.20;10.25;;;;;;;24.68;38.59;98773.91;5300032;27;20090;-78
2022/10/13 06:39:43;;;;;;;19.40;10.52;;;;;;;25.01;38.31;98778.84;5299955;27;20045;-78
2022/10/13 06:42:10;;;;;;;18.70;10.27;;;;;;;24.80;37.92;98780.72;5299435;27;20072;-78
2022/10/13 06:44:37;;;;;;;19.67;9.75;;;;;;;25.08;37.54;98781.72;5299867;27;20067;-78
2022/10/13 06:47:04;;;;;;;17.20;9.00;;;;;;;24.83;38.35;98788.38;5299923;27;20060;-79
2022/10/13 06:49:31;;;;;;;20.45;10.40;;;;;;;24.57;38.42;98787.22;5299369;27;20049;-78
2022/10/13 06:51:58;;;;;;;21.25;9.02;;;;;;;23.89;40.24;98795.69;5299835;27;20057;-78
2022/10/13 06:54:25;;;;;;;24.87;11.23;;;;;;;24.30;39.60;98786.00;5299755;27;20065;-78
2022/10/13 06:56:51;;;;;;;23.70;11.70;;;;;;;24.79;39.02;98792.25;5299632;27;20064;-79
2022/10/13 06:59:19;;;;;;;22.85;12.60;;;;;;;24.02;41.19;98787.56;5299881;27;20049;-80
2022/10/13 07:01:47;;;;;;;26.50;13.23;;;;;;;24.41;40.91;98788.56;5299903;27;20061;-78
2022/10/13 07:04:14;;;;;;;22.33;12.73;;;;;;;24.44;41.58;98784.81;5299508;27;20067;-78
2022/10/13 07:06:41;;;;;;;25.42;13.13;;;;;;;24.77;41.31;98792.38;5300019;27;20387;-78
2022/10/13 07:09:08;;;;;;;22.30;13.05;;;;;;;24.32;42.57;98794.66;5299602;27;20052;-78
2022/10/13 07:11:35;;;;;;;22.08;12.07;;;;;;;23.75;43.86;98789.94;5299734;27;20057;-78
2022/10/13 07:14:02;;;;;;;25.30;12.13;;;;;;;24.35;42.78;98788.25;5299964;27;20084;-79
2022/10/13 07:16:29;;;;;;;22.05;11.82;;;;;;;25.85;40.12;98794.03;5299539;27;20105;-78
2022/10/13 07:18:56;;;;;;;23.15;11.90;;;;;;;26.22;38.93;98788.72;5300406;27;20042;-78
2022/10/13 07:21:23;;;;;;;23.52;12.82;;;;;;;25.06;41.03;98797.72;5299819;27;20058;-78
2022/10/13 07:23:50;;;;;;;22.45;12.60;;;;;;;23.91;44.41;98791.13;5299516;27;20076;-78
2022/10/13 07:26:17;;;;;;;24.92;12.10;;;;;;;23.61;45.33;98791.94;5299703;27;20082;-78
2022/10/13 07:28:44;;;;;;;24.40;12.80;;;;;;;23.61;45.53;98793.75;5299621;27;20102;-77
2022/10/13 07:31:13;;;;;;;21.02;11.32;;;;;;;24.16;44.67;98787.22;5299257;27;20076;-77
2022/10/13 07:33:42;;;;;;;22.27;11.20;;;;;;;24.97;42.18;98790.59;5299731;27;20071;-77
2022/10/13 07:36:10;;;;;;;19.58;11.05;;;;;;;24.90;42.26;98786.03;5299540;27;20050;-78
2022/10/13 07:38:37;;;;;;;17.80;9.48;;;;;;;23.89;43.83;98786.94;5299328;27;20519;-78
2022/10/13 07:41:05;;;;;;;16.73;8.95;;;;;;;24.28;41.36;98782.69;5299770;27;20436;-78
2022/10/13 07:43:32;;;;;;;15.55;8.60;;;;;;;23.13;44.72;98778.41;5280315;27;20056;-78
2022/10/13 07:46:01;;;;;;;14.52;7.70;;;;;;;23.28;42.96;98771.84;5299088;27;20075;-82
2022/10/13 07:48:27;;;;;;;14.82;7.72;;;;;;;23.41;41.52;98770.84;5299328;27;20041;-78
2022/10/13 07:50:54;;;;;;;15.50;7.82;;;;;;;23.58;43.18;98781.66;5299628;27;20062;-78
2022/10/13 07:53:21;;;;;;;13.82;7.03;;;;;;;23.09;42.72;98769.09;5298924;27;20061;-78
2022/10/13 07:55:48;;;;;;;15.75;8.32;;;;;;;22.95;42.51;98777.28;5299584;27;20190;-78
2022/10/13 07:58:15;;;;;;;16.40;7.60;;;;;;;23.54;42.43;98782.03;5299293;27;20112;-78
2022/10/13 08:00:42;;;;;;;18.42;7.72;;;;;;;23.95;41.27;98766.19;5299521;27;20491;-78
2022/10/13 08:03:09;;;;;;;14.27;6.85;;;;;;;23.34;42.54;98773.16;5299858;27;20441;-78
2022/10/13 08:05:38;;;;;;;21.27;6.82;;;;;;;24.26;38.27;98773.22;5299039;27;20139;-78
2022/10/13 08:08:05;;;;;;;16.00;6.72;;;;;;;24.33;39.21;98769.94;5279945;27;20053;-77
2022/10/13 08:10:31;;;;;;;17.80;6.68;;;;;;;23.68;39.45;98763.25;5299751;27;20061;-78
2022/10/13 08:12:58;;;;;;;14.02;6.90;;;;;;;22.34;40.98;98764.63;5299342;27;20076;-78
2022/10/13 08:15:25;;;;;;;18.92;6.87;;;;;;;21.73;43.60;98765.94;5299481;27;20067;-80
2022/10/13 08:17:52;;;;;;;15.15;6.65;;;;;;;22.67;42.96;98765.53;5299663;27;20358;-78
2022/10/13 08:20:19;;;;;;;15.25;6.28;;;;;;;23.16;41.60;98754.44;5299310;27;20113;-78
2022/10/13 08:22:46;;;;;;;14.35;7.12;;;;;;;24.52;39.40;98759.44;5299389;27;20057;-79
2022/10/13 08:25:13;;;;;;;14.02;6.22;;;;;;;24.12;39.07;98758.59;5299349;27;20049;-80
2022/10/13 08:27:40;;;;;;;13.10;6.82;;;;;;;23.27;41.16;98753.56;5299139;27;20049;-80
2022/10/13 08:30:17;;;;;;;16.73;7.53;;;;;;;23.81;39.39;98748.06;5299486;27;20062;-80
2022/10/13 08:32:45;;;;;;;13.52;7.28;;;;;;;23.51;41.34;98753.31;5299288;27;20123;-80
2022/10/13 08:35:12;;;;;;;15.15;7.68;;;;;;;23.76;39.95;98755.56;5299081;27;20061;-80
2022/10/13 08:37:39;;;;;;;16.37;7.90;;;;;;;23.23;40.69;98749.53;5299486;27;20064;-79
2022/10/13 08:40:07;;;;;;;17.05;8.40;;;;;;;23.41;40.88;98752.41;5299581;27;20102;-80
2022/10/13 08:42:34;;;;;;;17.50;8.38;;;;;;;23.18;41.24;98746.41;5279717;27;20075;-80
2022/10/13 08:45:03;;;;;;;15.23;7.50;;;;;;;21.74;46.01;98751.84;5299399;27;20053;-80
2022/10/13 08:47:59;;;;;;;16.20;7.50;;;;;;;22.38;42.47;98758.16;5298495;27;20071;-79
2022/10/13 08:50:29;;;;;;;15.57;7.95;;;;;;;22.89;42.90;98759.37;5280000;27;20076;-83
2022/10/13 08:53:11;;;;;;;16.42;7.32;;;;;;;22.63;42.95;98751.75;5279921;27;20061;-80
2022/10/13 08:55:43;;;;;;;15.00;6.90;;;;;;;23.95;40.51;98750.37;5279404;27;20060;-81
2022/10/13 08:58:20;;;;;;;13.45;6.40;;;;;;;24.28;39.36;98745.75;5299455;27;20045;-81
2022/10/13 09:00:47;;;;;;;;;;;;;;;24.53;39.11;98753.19;5280609;27;20076;-80
2022/10/13 09:03:26;;;;;;;17.43;7.63;;;;;;;24.89;37.78;98750.03;5299150;27;19975;-79
2022/10/13 09:06:08;;;;;;;12.75;6.30;;;;;;;24.16;38.99;98742.41;5299164;27;20184;-79
2022/10/13 09:08:57;;;;;;;16.92;8.32;;;;;;;23.70;39.02;98744.69;5299596;27;20045;-79
2022/10/13 09:11:33;;;;;;;17.27;7.37;;;;;;;23.41;42.12;98741.88;5280565;27;20125;-78
2022/10/13 09:14:03;;;;;;;16.87;7.53;;;;;;;23.74;40.68;98748.75;5299512;27;20057;-78
2022/10/13 09:16:41;;;;;;;15.95;7.65;;;;;;;21.84;45.37;98739.69;5279435;27;20057;-78
2022/10/13 09:19:22;;;;;;;14.75;7.10;;;;;;;23.03;42.30;98730.94;5299788;27;20059;-79
2022/10/13 09:21:51;;;;;;;13.52;6.25;;;;;;;23.69;41.29;98741.22;5299544;27;20061;-79
2022/10/13 09:24:20;;;;;;;15.98;7.60;;;;;;;24.09;38.71;98735.16;5298739;27;20064;-79
2022/10/13 09:26:50;;;;;;;15.93;6.82;;;;;;;23.17;42.92;98742.13;5279843;27;20064;-79
2022/10/13 09:29:24;;;;;;;15.95;7.37;;;;;;;23.92;39.37;98741.88;5279662;27;20055;-79
2022/10/13 09:32:07;;;;;;;16.48;8.23;;;;;;;24.96;38.24;98737.94;5299392;27;20068;-79
2022/10/13 09:34:34;;;;;;;15.40;8.25;;;;;;;24.17;39.51;98730.88;5279708;27;20062;-79
2022/10/13 09:37:04;;;;;;;18.85;9.52;;;;;;;23.76;41.34;98733.63;5298864;27;20048;-80
2022/10/13 09:39:32;;;;;;;19.73;9.70;;;;;;;22.97;43.73;98733.28;5299132;27;20049;-80
2022/10/13 09:42:18;;;;;;;17.50;8.40;;;;;;;23.29;43.80;98731.44;5299219;27;20057;-80
2022/10/13 09:44:46;;;;;;;18.20;9.10;;;;;;;23.85;40.54;98732.84;5279441;27;20077;-79
2022/10/13 09:47:25;;;;;;;15.85;8.45;;;;;;;22.85;43.54;98723.75;5299150;27;20045;-79
2022/10/13 09:50:14;;;;;;;19.10;9.95;;;;;;;23.10;43.54;98723.41;5298933;27;20407;-79
2022/10/13 09:52:42;;;;;;;17.83;9.35;;;;;;;23.63;44.09;98728.59;5298499;27;20061;-79
2022/10/13 09:55:33;;;;;;;15.52;7.85;;;;;;;23.38;43.60;98714.81;5298932;27;20068;-82
2022/10/13 09:58:24;;;;;;;13.82;6.97;;;;;;;23.62;42.47;98711.13;5298449;27;20072;-82
2022/10/13 10:00:51;;;;;;;14.80;8.23;;;;;;;23.19;42.68;98712.09;5299452;27;20392;-82
2022/10/13 10:03:22;;;;;;;15.00;7.30;;;;;;;23.52;42.10;98707.56;5280105;27;20471;-81
2022/10/13 10:05:58;;;;;;;13.95;6.22;;;;;;;23.81;42.74;98713.81;5279108;27;20071;-81
2022/10/13 10:08:36;;;;;;;15.83;8.07;;;;;;;23.86;41.05;98710.81;5279548;27;20060;-81
2022/10/13 10:11:40;;;;;;;13.38;6.43;;;;;;;25.09;39.78;98712.97;5268625;27;20134;-82
2022/10/13 10:14:32;;;;;;;18.00;7.47;;;;;;;23.40;40.95;98716.53;5298965;27;20057;-81
2022/10/13 10:17:32;;;;;;;14.10;6.32;;;;;;;22.46;44.30;98724.22;5299542;27;20061;-81
2022/10/13 10:20:23;;;;;;;18.25;8.98;;;;;;;23.38;41.79;98706.09;5299349;27;20060;-81
2022/10/13 10:23:36;;;;;;;18.58;8.98;;;;;;;24.15;42.73;98705.63;5300126;27;20055;-82
2022/10/13 10:26:12;;;;;;;18.00;9.38;;;;;;;24.08;41.42;98707.13;5299220;27;20072;-82
2022/10/13 10:28:59;;;;;;;15.50;8.07;;;;;;;24.17;42.09;98707.16;5300111;27;20072;-82
2022/10/13 10:31:55;;;;;;;18.10;8.93;;;;;;;23.94;41.39;98706.53;5280646;27;20064;-82
2022/10/13 10:34:28;;;;;;;17.00;7.43;;;;;;;24.54;40.59;98693.34;5299125;27;20056;-79
2022/10/13 10:37:25;;;;;;;20.02;9.20;;;;;;;24.30;41.84;98695.50;5280395;27;20064;-79
2022/10/13 10:39:58;;;;;;;20.07;10.10;;;;;;;23.82;43.32;98691.78;5280425;27;20077;-79
2022/10/13 10:42:47;;;;;;;17.58;9.73;;;;;;;24.32;41.46;98694.44;5300058;27;20050;-79
2022/10/13 10:45:22;;;;;;;18.05;10.20;;;;;;;24.11;41.50;98691.03;5299701;27;20048;-79
2022/10/13 10:47:51;;;;;;;19.58;9.50;;;;;;;24.47;41.24;98681.69;5299213;27;20071;-80
2022/10/13 10:50:19;;;;;;;21.30;9.70;;;;;;;23.62;41.96;98677.72;5300031;27;20068;-79
2022/10/13 10:53:00;;;;;;;17.40;9.18;;;;;;;24.10;41.90;98678.81;5299766;27;20106;-79
2022/10/13 10:55:50;;;;;;;17.87;10.02;;;;;;;23.75;43.65;98674.84;5280081;27;20087;-79
2022/10/13 10:58:17;;;;;;;20.30;9.70;;;;;;;24.34;41.50;98681.94;5280465;27;20167;-79
2022/10/13 11:00:54;;;;;;;19.60;9.48;;;;;;;22.69;45.50;98680.25;5299671;27;20060;-80
2022/10/13 11:03:24;;;;;;;;;;;;;;;24.45;41.66;98679.16;5300354;27;20049;-80
2022/10/13 11:06:02;;;;;;;18.55;10.00;;;;;;;24.55;40.46;98667.78;5280546;27;19967;-80
2022/10/13 11:08:41;;;;;;;15.70;8.88;;;;;;;24.23;42.23;98671.47;5299614;27;20061;-81
2022/10/13 11:11:24;;;;;;;17.35;8.95;;;;;;;24.34;42.22;98662.66;5300463;27;20072;-83
2022/10/13 11:14:00;;;;;;;20.70;10.05;;;;;;;24.40;41.68;98665.56;5300045;27;20052;-82
2022/10/13 11:16:33;;;;;;;16.48;8.82;;;;;;;25.03;40.69;98652.78;5299398;27;20046;-83
2022/10/13 11:19:19;;;;;;;15.32;8.65;;;;;;;24.51;40.34;98651.41;5299989;27;20103;-82
2022/10/13 11:21:58;;;;;;;18.23;9.63;;;;;;;24.32;41.92;98654.03;5299420;27;20076;-83
2022/10/13 11:24:40;;;;;;;21.50;8.88;;;;;;;24.22;42.85;98641.66;5299748;27;20052;-84
2022/10/13 11:27:07;;;;;;;16.50;8.82;;;;;;;24.56;40.90;98656.28;5299822;27;20089;-83
2022/10/13 11:29:59;;;;;;;19.67;9.30;;;;;;;24.66;39.44;98633.34;5299176;27;20061;-83
2022/10/13 11:32:26;;;;;;;18.70;9.25;;;;;;;23.94;41.29;98640.66;5299389;27;20559;-83
2022/10/13 11:34:56;;;;;;;17.37;9.18;;;;;;;24.98;39.97;98640.94;5299638;27;20056;-83
2022/10/13 11:37:27;;;;;;;15.88;8.75;;;;;;;25.80;38.23;98633.22;5299302;27;20046;-83
2022/10/13 11:40:08;;;;;;;18.45;8.98;;;;;;;24.30;42.72;98634.88;5302422;27;20144;-82